Tiempo atmosférico en la estación meteorológica de Zorita, Cáceres (413 m.)



Fecha
DESCASC
Temp. máxima en grados centígrados (hora)
DESCASC
Temp. mínima en grados centígrados (hora)
DESCASC
Temp. media en grados centígrados
DESCASC
Racha de viento máxima en m/sg (hora)
DESCASC
Velocidad máxima media en intervalos de 10 minutos(hora)
DESCASC
Precipitaciones diarias en mm
DESCASC
Precipitaciones de 00:00 a 06:00 en mm
DESCASC
Precipitaciones de 06:00 a 12:00 en mm
DESCASC
Precipitaciones de 12:00 a 18:00 en mm
DESCASC
Precipitaciones de 18:00 a 24:00 en mm
DESCASC
07-08-2020 38.4 (17:10) 23.9 (06:30) 31.2 9.72 (14:40) 5 (14:40) 0 0 0 0 0
06-08-2020 40.1 (17:30) 26.7 (06:50) 33.4 11.11 (19:20) 7.5 (12:50) 0 0 0 0 0
05-08-2020 38.8 (17:00) 24 (07:40) 31.4 10 (19:20) 4.44 (10:40) 0 0 0 0 0
04-08-2020 37.1 (16:40) 21.8 (05:30) 29.4 8.61 (18:00) 5.83 (06:50) 0 0 0 0 0
03-08-2020 34.8 (18:00) 20 (07:50) 27.4 10 (18:50) 5.83 (20:30) 0 0 0 0 0
02-08-2020 35.3 (19:20) 18.1 (00:00) 26.7 11.67 (16:30) 8.06 (16:30) 0 0 0 0 0
01-08-2020 38.1 (17:00) 18.9 (00:00) 28.5 12.22 (16:40) 7.5 (18:10) 0 0 0 0 0
31-07-2020 39.2 (17:50) 22.4 (06:50) 30.8 8.06 (18:40) 5.28 (18:40) 0 0 0 0 0
30-07-2020 37.9 (16:30) 23.9 (00:00) 30.9 11.39 (18:10) 6.67 (18:00) 0 0 0 0 0
29-07-2020 40 (17:40) 20.2 (00:00) 30.1 8.06 (16:00) 5.28 (01:20) 0 0 0 0 0
28-07-2020 36.8 (18:30) 20.9 (00:00) 28.8 8.33 (16:00) 4.72 (19:50) 0 0 0 0 0
27-07-2020 39.3 (17:10) 24.9 (00:00) 32.1 10.83 (16:10) 6.39 (18:20) 0 0 0 0 0
26-07-2020 40.5 (16:40) 21.6 (00:00) 31.1 8.33 (01:30) 6.67 (02:10) 0 0 0 0 0
25-07-2020 39 (17:30) 20.1 (00:00) 29.6 10 (16:30) 6.39 (02:00) 0 0 0 0 0
24-07-2020 37.9 (18:10) 22.5 (00:00) 30.2 11.39 (02:00) 7.78 (01:40) 0 0 0 0 0
23-07-2020 37.3 (16:20) 21.3 (00:00) 29.3 9.72 (17:20) 7.22 (18:30) 0 0 0 0 0
22-07-2020 33.8 (19:00) 17.9 (00:00) 25.8 10.56 (00:30) 7.22 (00:10) 0.8 0.6 0.2 0 0
21-07-2020 34 (12:10) 22.1 (00:00) 28.1 11.94 (22:40) 9.17 (23:20) 2 0 0 1.2 0.8
20-07-2020 39.2 (18:20) 22.8 (00:00) 31 10.56 (23:20) 6.67 (23:20) 0 0 0 0 0
19-07-2020 37.6 (17:20) 21 (00:00) 29.3 17.22 (17:20) 7.78 (19:00) 0 0 0 0 0
18-07-2020 39.6 (16:50) 23.7 (00:00) 31.6 12.22 (16:20) 5.83 (15:40) 0 0 0 0 0
17-07-2020 39.1 (17:10) 24.2 (00:00) 31.6 11.39 (16:20) 6.67 (19:40) 0 0 0 0 0
16-07-2020 38.9 (16:40) 27.5 (00:00) 33.2 9.17 (10:10) 6.39 (10:10) 0 0 0 0 0
15-07-2020 36.5 (16:50) 23.1 (00:00) 29.8 10.83 (05:10) 8.06 (03:40) 0 0 0 0 0
14-07-2020 37.5 (15:20) 22.9 (00:00) 30.2 10 (20:10) 5.83 (18:00) 0 0 0 0 0
13-07-2020 37.3 (17:50) 22.1 (00:00) 29.7 10.28 (17:50) 5.56 (23:50) 0 0 0 0 0

Gráficas

Temp. máximas Temp. mínimas Temp. medias Precipitaciones Rachas de viento máximas Velocidades máximas media en intervalos de 10 minutos

Datos horarios

Fecha y hora oficial Temperatura (ºC) Velocidad del viento (km/h) Dirección del viento Racha (km/h) Dirección de racha Precipitación (mm) Presión (hPa) Tendencia (hPa) Humedad (%)
2020-08-11 23:00:00 22 22 Nordeste 38 Este 0 -- -- 57
2020-08-11 22:00:00 23.3 20 Este 31 Este 0 -- -- 57
2020-08-11 21:00:00 24.8 23 Sudeste 38 Sudeste 0 -- -- 55
2020-08-11 20:00:00 25.1 22 Este 66 Norte 0 -- -- 55
2020-08-11 19:00:00 25.4 17 Nordeste 39 Este 0 -- -- 52
2020-08-11 18:00:00 24.4 27 Este 42 Este 0 -- -- 58
2020-08-11 17:00:00 25.1 35 Este 53 Este 0 -- -- 59
2020-08-11 16:00:00 32 9 Sur 25 Sudoeste 0 -- -- 27
2020-08-11 15:00:00 30.5 17 Oeste 27 Oeste 0 -- -- 36
2020-08-11 14:00:00 27.7 11 Este 24 Este 0 -- -- 43
2020-08-11 13:00:00 26.2 17 Este 31 Este 0 -- -- 48
2020-08-11 12:00:00 24.7 22 Este 34 Sudeste 0 -- -- 48
2020-08-11 11:00:00 23 5 Nordeste 23 Sudeste 0 -- -- 49
2020-08-11 10:00:00 24.6 7 Sur 14 Sudeste 0 -- -- 43
2020-08-11 09:00:00 23.4 5 Este 12 Este 0 -- -- 44
2020-08-11 08:00:00 21.8 3 Sudeste 12 Este 0 -- -- 50
2020-08-11 07:00:00 21.9 8 Este 12 Este 0 -- -- 48
2020-08-11 06:00:00 21.8 8 Sudeste 12 Nordeste 0 -- -- 47
2020-08-11 05:00:00 23.1 8 Nordeste 13 Nordeste 0 -- -- 41
2020-08-11 04:00:00 23.6 3 Nordeste 13 Norte 0 -- -- 38
2020-08-11 03:00:00 24.3 6 Noroeste 17 Noroeste 0 -- -- 34
2020-08-11 02:00:00 25.5 16 Noroeste 21 Noroeste 0 -- -- 32
2020-08-11 01:00:00 26.9 16 Noroeste 23 Noroeste 0 -- -- 30
2020-08-11 00:00:00 27.2 13 Noroeste 17 Noroeste 0 -- -- 31
2020-08-10 23:00:00 28.3 6 Oeste 13 Sudoeste 0 -- -- 35
2020-08-10 22:00:00 30 9 Sudoeste 15 Sudoeste 0 -- -- 33
2020-08-10 21:00:00 32.8 11 Sudoeste 15 Sudoeste 0 -- -- 26
2020-08-10 20:00:00 34.9 7 Sur 21 Sudoeste 0 -- -- 24
2020-08-10 19:00:00 35.9 8 Sur 29 Sudoeste 0 -- -- 21
2020-08-10 18:00:00 36.1 15 Sudoeste 28 Sudeste 0 -- -- 21
2020-08-10 17:00:00 36 14 Sudoeste 29 Sudoeste 0 -- -- 21
2020-08-10 16:00:00 35.2 14 Sudeste 30 Sudeste 0 -- -- 21
2020-08-10 15:00:00 34.6 12 Sudeste 26 Sur 0 -- -- 21
2020-08-10 14:00:00 32.8 14 Sur 25 Sur 0 -- -- 25
2020-08-10 13:00:00 30.9 13 Sudeste 22 Sur 0 -- -- 29
2020-08-10 12:00:00 28 10 Sur 17 Sur 0 -- -- 32
2020-08-10 11:00:00 25.8 9 Sudeste 13 Sudeste 0 -- -- 35
2020-08-10 10:00:00 24.4 8 Este 14 Este 0 -- -- 42
2020-08-10 09:00:00 21.7 9 Este 13 Este 0 -- -- 56
2020-08-10 08:00:00 19.7 6 Sudeste 13 Este 0 -- -- 61
2020-08-10 07:00:00 19.9 10 Este 12 Este 0 -- -- 58
2020-08-10 06:00:00 22.9 8 Noroeste 12 Noroeste 0 -- -- 35
2020-08-10 05:00:00 22.2 10 Noroeste 13 Noroeste 0 -- -- 42
2020-08-10 04:00:00 24.2 3 Sur 18 Noroeste 0 -- -- 35
2020-08-10 03:00:00 25.1 18 Noroeste 26 Norte 0 -- -- 35
2020-08-10 02:00:00 24.1 17 Noroeste 31 Noroeste 0.2 -- -- 44
2020-08-10 01:00:00 27.9 21 Noroeste 31 Noroeste 0 -- -- 22
2020-08-10 00:00:00 28.6 20 Noroeste 31 Noroeste 0 -- -- 23
2020-08-09 23:00:00 29.6 19 Noroeste 30 Noroeste 0 -- -- 24
2020-08-09 22:00:00 31.3 14 Noroeste 19 Noroeste 0 -- -- 23
2020-08-09 21:00:00 34 13 Oeste 23 Oeste 0 -- -- 19
2020-08-09 20:00:00 36.1 18 Oeste 26 Oeste 0 -- -- 15
2020-08-09 19:00:00 37.4 15 Oeste 27 Sudoeste 0 -- -- 14
2020-08-09 18:00:00 37.6 13 Sudoeste 31 Sudoeste 0 -- -- 14
2020-08-09 17:00:00 37.2 11 Sudoeste 26 Sur 0 -- -- 18
2020-08-09 16:00:00 36.9 16 Sudoeste 28 Sudoeste 0 -- -- 20
2020-08-09 15:00:00 36.2 10 Sur 23 Sur 0 -- -- 21
2020-08-09 14:00:00 35.7 11 Sur 22 Sur 0 -- -- 22
2020-08-09 13:00:00 34.4 10 Sur 18 Sudoeste 0 -- -- 25
2020-08-09 12:00:00 32.6 6 Sur 14 Sudeste 0 -- -- 27
2020-08-09 11:00:00 30.3 7 Este 14 Este 0 -- -- 32
2020-08-09 10:00:00 28.1 8 Este 12 Este 0 -- -- 38
2020-08-09 09:00:00 25.9 4 Nordeste 7 Nordeste 0 -- -- 43
2020-08-09 08:00:00 23 2 Norte 15 Este 0 -- -- 52
2020-08-09 07:00:00 24.3 13 Nordeste 19 Nordeste 0 -- -- 47
2020-08-09 06:00:00 24.6 5 Noroeste 19 Noroeste 0 -- -- 41
2020-08-09 05:00:00 25.4 16 Noroeste 20 Noroeste 0 -- -- 39
2020-08-09 04:00:00 27.2 17 Noroeste 26 Noroeste 0 -- -- 36
2020-08-09 03:00:00 27.4 21 Noroeste 28 Noroeste 0 -- -- 36
2020-08-09 02:00:00 28 21 Noroeste 31 Noroeste 0 -- -- 35
2020-08-09 01:00:00 29.3 22 Noroeste 32 Noroeste 0 -- -- 33
2020-08-09 00:00:00 29.5 10 Noroeste 15 Noroeste 0 -- -- 35
2020-08-08 23:00:00 30.1 13 Noroeste 18 Noroeste 0 -- -- 31
2020-08-08 22:00:00 31.9 12 Noroeste 17 Oeste 0 -- -- 29
2020-08-08 21:00:00 35 11 Oeste 14 Oeste 0 -- -- 22
2020-08-08 20:00:00 37.2 8 Oeste 15 Sur 0 -- -- 17
2020-08-08 19:00:00 38.3 4 Oeste 17 Sur 0 -- -- 16
2020-08-08 18:00:00 37 12 Sudeste 22 Sudeste 0 -- -- 17
2020-08-08 17:00:00 37.2 12 Sur 23 Sudeste 0 -- -- 18
2020-08-08 16:00:00 36.3 13 Sur 22 Sudoeste 0 -- -- 20
2020-08-08 15:00:00 32.6 11 Sudeste 32 Sudoeste 0 -- -- 30
2020-08-08 14:00:00 34.9 21 Sudoeste 29 Sudoeste 0 -- -- 23
2020-08-08 13:00:00 34.7 7 Sudeste 16 Sur 0 -- -- 23
2020-08-08 12:00:00 32.6 3 Sudeste 19 Este 0 -- -- 30
2020-08-08 11:00:00 29.8 7 Nordeste 17 Este 0 -- -- 38
2020-08-08 10:00:00 26.9 12 Este 20 Este 0 -- -- 46
2020-08-08 09:00:00 26 2 Sur 10 Norte 0 -- -- 49
2020-08-08 08:00:00 23.3 3 Sudoeste 8 Nordeste 0 -- -- 54
2020-08-08 07:00:00 24.5 5 Este 14 Nordeste 0 -- -- 50
2020-08-08 06:00:00 23.6 11 Nordeste 14 Nordeste 0 -- -- 50
2020-08-08 05:00:00 24.9 7 Sudoeste 16 Norte 0 -- -- 49
2020-08-08 04:00:00 26.8 11 Noroeste 20 Noroeste 0 -- -- 46
2020-08-08 03:00:00 26.9 9 Oeste 14 Sudoeste 0 -- -- 42
2020-08-08 02:00:00 27.7 9 Noroeste 13 Oeste 0 -- -- 39
2020-08-08 01:00:00 28.2 8 Oeste 18 Noroeste 0 -- -- 33
2020-08-08 00:00:00 29.9 13 Noroeste 18 Oeste 0 -- -- 28
2020-08-07 23:00:00 30.5 7 Noroeste 11 Oeste 0 -- -- 27
2020-08-07 22:00:00 32.6 4 Sudoeste 11 Sudoeste 0 -- -- 24
2020-08-07 21:00:00 35.2 11 Sur 20 Sudoeste 0 -- -- 21
2020-08-07 20:00:00 37.8 8 Sudoeste 23 Sudeste 0 -- -- 16
2020-08-07 19:00:00 38.3 13 Sudoeste 22 Sudoeste 0 -- -- 15
2020-08-07 18:00:00 37.5 8 Sudeste 28 Sudeste 0 -- -- 16
2020-08-07 17:00:00 37.8 7 Oeste 21 Sudoeste 0 -- -- 17
2020-08-07 16:00:00 37.2 12 Sur 27 Oeste 0 -- -- 17
2020-08-07 15:00:00 36.8 17 Sur 35 Sur 0 -- -- 16
2020-08-07 14:00:00 35.8 13 Sur 25 Sur 0 -- -- 20
2020-08-07 13:00:00 34.1 10 Sur 19 Sur 0 -- -- 28
2020-08-07 12:00:00 31.8 7 Sur 14 Sur 0 -- -- 31
2020-08-07 11:00:00 30 9 Sur 17 Sudeste 0 -- -- 33
2020-08-07 10:00:00 28.2 9 Sudeste 14 Sudeste 0 -- -- 36
2020-08-07 09:00:00 26 7 Sudeste 14 Este 0 -- -- 42
2020-08-07 08:00:00 24.3 10 Este 14 Este 0 -- -- 47
2020-08-07 07:00:00 24.3 6 Este 11 Sudeste 0 -- -- 46
2020-08-07 06:00:00 24.6 6 Nordeste 9 Nordeste 0 -- -- 44
2020-08-07 05:00:00 24.3 4 Este 8 Este 0 -- -- 45
2020-08-07 04:00:00 26.3 0 Calma 10 Sudoeste 0 -- -- 40
2020-08-07 03:00:00 27 9 Sudoeste 17 Sudoeste 0 -- -- 40
2020-08-07 02:00:00 28.5 10 Sudoeste 18 Noroeste 0 -- -- 33
2020-08-07 01:00:00 30 14 Noroeste 17 Noroeste 0 -- -- 28
2020-08-07 00:00:00 29.9 10 Sudoeste 28 Sudoeste 0 -- -- 27
2020-08-06 23:00:00 31 3 Nordeste 5 Nordeste 0 -- -- 24
2020-08-06 22:00:00 34.4 5 Sudoeste 9 Sudoeste 0 -- -- 20
2020-08-06 21:00:00 36.8 7 Sudoeste 14 Sudoeste 0 -- -- 19
2020-08-06 20:00:00 38.8 4 Sur 40 Sudoeste 0 -- -- 16
2020-08-06 19:00:00 39.5 13 Sudoeste 28 Sudeste 0 -- -- 15
2020-08-06 18:00:00 39.7 12 Sudeste 24 Sudeste 0 -- -- 14
2020-08-06 17:00:00 39.4 22 Sudeste 38 Sudeste 0 -- -- 15
2020-08-06 16:00:00 38.6 19 Sudeste 36 Sur 0 -- -- 16
2020-08-06 15:00:00 37.7 17 Sudeste 39 Sudeste 0 -- -- 18
2020-08-06 14:00:00 36.7 21 Sudeste 36 Sudeste 0 -- -- 19
2020-08-06 13:00:00 35.3 22 Sudeste 38 Sudeste 0 -- -- 21
2020-08-06 12:00:00 34.3 21 Sudeste 32 Sudeste 0 -- -- 23
2020-08-06 11:00:00 32.5 18 Sudeste 30 Sudeste 0 -- -- 27
2020-08-06 10:00:00 30.8 18 Este 30 Este 0 -- -- 30
2020-08-06 09:00:00 28.6 19 Este 26 Este 0 -- -- 30
2020-08-06 08:00:00 26.9 17 Nordeste 24 Nordeste 0 -- -- 32
2020-08-06 07:00:00 26.7 10 Este 15 Este 0 -- -- 32
2020-08-06 06:00:00 27.2 10 Este 14 Este 0 -- -- 31
2020-08-06 05:00:00 27.4 8 Este 10 Este 0 -- -- 31
2020-08-06 04:00:00 27 3 Este 7 Sudoeste 0 -- -- 32
2020-08-06 03:00:00 28.1 2 Este 11 Nordeste 0 -- -- 30
2020-08-06 02:00:00 28.8 10 Nordeste 15 Nordeste 0 -- -- 29
2020-08-06 01:00:00 30.1 8 Oeste 26 Sudeste 0 -- -- 29
2020-08-06 00:00:00 31.9 7 Noroeste 9 Noroeste 0 -- -- 24
2020-08-05 23:00:00 31.8 6 Noroeste 7 Noroeste 0 -- -- 24
2020-08-05 22:00:00 33.3 3 Oeste 13 Oeste 0 -- -- 22
2020-08-05 21:00:00 35.8 8 Sudoeste 14 Sur 0 -- -- 20
2020-08-05 20:00:00 37.3 10 Sudoeste 36 Sur 0 -- -- 18
2020-08-05 19:00:00 38.1 9 Sur 21 Sudoeste 0 -- -- 15
2020-08-05 18:00:00 38.3 8 Sur 24 Sur 0 -- -- 15
2020-08-05 17:00:00 38.8 11 Sur 26 Sudoeste 0 -- -- 15
2020-08-05 16:00:00 37.3 13 Oeste 26 Oeste 0 -- -- 17
2020-08-05 15:00:00 37.3 9 Oeste 22 Oeste 0 -- -- 17
2020-08-05 14:00:00 36.6 9 Sur 18 Sur 0 -- -- 18
2020-08-05 13:00:00 35 10 Sur 23 Sur 0 -- -- 21
2020-08-05 12:00:00 33.7 12 Sudeste 24 Sudeste 0 -- -- 22
2020-08-05 11:00:00 31.9 13 Sudeste 21 Sudeste 0 -- -- 20
2020-08-05 10:00:00 29.9 9 Sudeste 15 Este 0 -- -- 23
2020-08-05 09:00:00 26.6 0 Calma 7 Sudoeste 0 -- -- 28
2020-08-05 08:00:00 24.2 5 Noroeste 16 Este 0 -- -- 32
2020-08-05 07:00:00 26.3 13 Nordeste 15 Nordeste 0 -- -- 27
2020-08-05 06:00:00 26.4 9 Nordeste 15 Nordeste 0 -- -- 26
2020-08-05 05:00:00 25.4 12 Nordeste 13 Nordeste 0 -- -- 27
2020-08-05 04:00:00 26.5 4 Nordeste 13 Norte 0 -- -- 24
2020-08-05 03:00:00 25.6 10 Noroeste 17 Noroeste 0 -- -- 26
2020-08-05 02:00:00 28 0 Calma 13 Norte 0 -- -- 21
2020-08-05 01:00:00 29.3 8 Nordeste 16 Norte 0 -- -- 18
2020-08-05 00:00:00 31 9 Norte 23 Norte 0 -- -- 17
2020-08-04 23:00:00 31.7 16 Norte 22 Norte 0 -- -- 18
2020-08-04 22:00:00 31.3 14 Norte 17 Norte 0 -- -- 20
2020-08-04 21:00:00 34.1 9 Sur 18 Sudoeste 0 -- -- 17
2020-08-04 20:00:00 35.8 10 Sur 25 Sudoeste 0 -- -- 18
2020-08-04 19:00:00 36.5 13 Sudoeste 25 Sudoeste 0 -- -- 16
2020-08-04 18:00:00 36.7 18 Sudoeste 31 Sudoeste 0 -- -- 15
2020-08-04 17:00:00 36.9 12 Oeste 27 Sudoeste 0 -- -- 15
2020-08-04 16:00:00 36.5 9 Sudeste 26 Sudoeste 0 -- -- 15
2020-08-04 15:00:00 35.7 11 Sur 28 Sudeste 0 -- -- 16
2020-08-04 14:00:00 35.1 8 Este 29 Este 0 -- -- 17
2020-08-04 13:00:00 33.6 14 Este 31 Este 0 -- -- 18
2020-08-04 12:00:00 32.4 14 Este 28 Este 0 -- -- 20
2020-08-04 11:00:00 30.9 15 Este 28 Este 0 -- -- 22
2020-08-04 10:00:00 28.3 17 Este 27 Nordeste 0 -- -- 25
2020-08-04 09:00:00 26.3 16 Este 24 Este 0 -- -- 27
2020-08-04 08:00:00 25.2 15 Este 26 Nordeste 0 -- -- 28
2020-08-04 07:00:00 25.8 20 Nordeste 29 Este 0 -- -- 26
2020-08-04 06:00:00 24.9 14 Nordeste 17 Nordeste 0 -- -- 28
2020-08-04 05:00:00 22.9 11 Noroeste 17 Noroeste 0 -- -- 37
2020-08-04 04:00:00 23.9 17 Noroeste 27 Noroeste 0 -- -- 33
2020-08-04 03:00:00 24.5 20 Noroeste 26 Noroeste 0 -- -- 32
2020-08-04 02:00:00 25.8 18 Noroeste 23 Noroeste 0 -- -- 30
2020-08-04 01:00:00 26.8 17 Noroeste 25 Noroeste 0 -- -- 29
2020-08-04 00:00:00 28.2 18 Noroeste 26 Norte 0 -- -- 27
2020-08-03 23:00:00 28.7 15 Norte 20 Norte 0 -- -- 27
2020-08-03 22:00:00 28.5 12 Noroeste 23 Noroeste 0 -- -- 28
2020-08-03 21:00:00 31.9 18 Noroeste 30 Oeste 0 -- -- 21
2020-08-03 20:00:00 33.8 17 Oeste 33 Oeste 0 -- -- 22
2020-08-03 19:00:00 34.5 19 Sudoeste 36 Sur 0 -- -- 20
2020-08-03 18:00:00 34.8 17 Sudoeste 27 Sudoeste 0 -- -- 21
2020-08-03 17:00:00 33.9 14 Oeste 27 Oeste 0 -- -- 23
2020-08-03 16:00:00 33.6 9 Sur 24 Sur 0 -- -- 24
2020-08-03 15:00:00 32.7 11 Sudoeste 22 Sudeste 0 -- -- 24
2020-08-03 14:00:00 31.4 12 Sudeste 26 Sudeste 0 -- -- 26
2020-08-03 13:00:00 29.9 14 Sudeste 22 Sudeste 0 -- -- 28
2020-08-03 12:00:00 27.4 11 Este 19 Este 0 -- -- 34
2020-08-03 11:00:00 25 7 Este 14 Este 0 -- -- 37
2020-08-03 10:00:00 23.2 8 Nordeste 27 Noroeste 0 -- -- 45
2020-08-03 09:00:00 21.7 17 Noroeste 25 Noroeste 0 -- -- 44
2020-08-03 08:00:00 20.6 21 Noroeste 28 Noroeste 0 -- -- 47
2020-08-03 07:00:00 20.4 5 Oeste 12 Noroeste 0 -- -- 51
2020-08-03 06:00:00 22.2 10 Noroeste 20 Noroeste 0 -- -- 44
2020-08-03 05:00:00 23.1 14 Noroeste 27 Noroeste 0 -- -- 41
2020-08-03 04:00:00 23.7 11 Noroeste 24 Noroeste 0 -- -- 40
2020-08-03 03:00:00 24.3 4 Noroeste 21 Noroeste 0 -- -- 35
2020-08-03 02:00:00 25.1 9 Noroeste 26 Noroeste 0 -- -- 29
2020-08-03 01:00:00 26.8 18 Noroeste 28 Noroeste 0 -- -- 27
2020-08-03 00:00:00 27.4 16 Noroeste 24 Noroeste 0 -- -- 27
2020-08-02 23:00:00 28.5 16 Noroeste 27 Oeste 0 -- -- 24
2020-08-02 22:00:00 30.7 19 Oeste 31 Oeste 0 -- -- 17
2020-08-02 21:00:00 33.3 24 Oeste 34 Oeste 0 -- -- 12
2020-08-02 20:00:00 34.4 20 Oeste 33 Oeste 0 -- -- 12
2020-08-02 19:00:00 34.3 20 Sudoeste 37 Sudoeste 0 -- -- 15
2020-08-02 18:00:00 34.8 23 Sur 37 Sudoeste 0 -- -- 23
2020-08-02 17:00:00 34.6 22 Sudoeste 42 Sur 0 -- -- 24
2020-08-02 16:00:00 33.4 26 Sur 40 Sur 0 -- -- 29
2020-08-02 15:00:00 33 20 Sur 30 Sur 0 -- -- 30
2020-08-02 14:00:00 31 16 Sudoeste 28 Sudoeste 0 -- -- 32
2020-08-02 13:00:00 29.3 19 Sudoeste 26 Sudoeste 0 -- -- 34
2020-08-02 12:00:00 26.8 7 Sudoeste 15 Oeste 0 -- -- 38
2020-08-02 11:00:00 24.3 6 Sur 13 Sudeste 0 -- -- 45
2020-08-02 10:00:00 21.9 6 Sur 10 Sur 0 -- -- 51
2020-08-02 09:00:00 20 5 Sur 6 Sudeste 0 -- -- 58
2020-08-02 08:00:00 18.1 8 Este 19 Noroeste 0 -- -- 63
2020-08-02 07:00:00 19.7 13 Noroeste 22 Noroeste 0 -- -- 53
2020-08-02 06:00:00 19.3 13 Oeste 17 Noroeste 0 -- -- 54
2020-08-02 05:00:00 21.2 13 Noroeste 19 Noroeste 0 -- -- 49
2020-08-02 04:00:00 22.1 14 Noroeste 24 Noroeste 0 -- -- 50
2020-08-02 03:00:00 24.2 21 Noroeste 31 Noroeste 0 -- -- 45
2020-08-02 02:00:00 26.2 21 Noroeste 35 Noroeste 0 -- -- 37
2020-08-02 01:00:00 28.2 27 Noroeste 38 Noroeste 0 -- -- 30
2020-08-02 00:00:00 28.5 18 Noroeste 23 Noroeste 0 -- -- 31
2020-08-01 23:00:00 29.8 4 Sur 13 Noroeste 0 -- -- 29
2020-08-01 22:00:00 31.2 10 Noroeste 21 Noroeste 0 -- -- 24
2020-08-01 21:00:00 34.8 14 Noroeste 29 Noroeste 0 -- -- 19
2020-08-01 20:00:00 36.4 19 Oeste 33 Noroeste 0 -- -- 16
2020-08-01 19:00:00 37.4 24 Oeste 40 Oeste 0 -- -- 13
2020-08-01 18:00:00 38 24 Oeste 38 Noroeste 0 -- -- 8
2020-08-01 17:00:00 38.1 18 Oeste 44 Noroeste 0 -- -- 9
2020-08-01 16:00:00 37.1 17 Sudoeste 32 Sudoeste 0 -- -- 18
2020-08-01 15:00:00 35.9 13 Sur 24 Sur 0 -- -- 16
2020-08-01 14:00:00 34.8 17 Sudoeste 26 Sudoeste 0 -- -- 19
2020-08-01 13:00:00 32.5 8 Sudoeste 24 Sur 0 -- -- 18
2020-08-01 12:00:00 30.7 6 Sur 14 Sudeste 0 -- -- 22
2020-08-01 11:00:00 27.7 7 Sur 13 Sur 0 -- -- 28
2020-08-01 10:00:00 25.5 5 Sur 9 Sur 0 -- -- 32
2020-08-01 09:00:00 23.7 5 Sudeste 8 Este 0 -- -- 31
2020-08-01 08:00:00 19.5 4 Oeste 6 Norte 0 -- -- 38
2020-08-01 07:00:00 20.8 3 Sur 14 Noroeste 0 -- -- 43
2020-08-01 06:00:00 22.8 14 Noroeste 16 Noroeste 0 -- -- 28
2020-08-01 05:00:00 23.1 10 Oeste 21 Noroeste 0 -- -- 29
2020-08-01 04:00:00 26.1 17 Noroeste 28 Noroeste 0 -- -- 24
2020-08-01 03:00:00 26.8 20 Noroeste 32 Noroeste 0 -- -- 26
2020-08-01 02:00:00 28.1 21 Noroeste 33 Noroeste 0 -- -- 24
2020-08-01 01:00:00 29.8 19 Noroeste 32 Noroeste 0 -- -- 22
2020-08-01 00:00:00 30 12 Noroeste 13 Noroeste 0 -- -- 22
2020-07-31 23:00:00 31.1 6 Oeste 10 Sudoeste 0 -- -- 20
2020-07-31 22:00:00 33.4 6 Oeste 15 Sudoeste 0 -- -- 17
2020-07-31 21:00:00 35.8 11 Sudoeste 15 Sudoeste 0 -- -- 17
2020-07-31 20:00:00 38 11 Sudoeste 27 Sudoeste 0 -- -- 12
2020-07-31 19:00:00 38.8 13 Sudoeste 29 Sudoeste 0 -- -- 11
2020-07-31 18:00:00 38.9 17 Sur 28 Sur 0 -- -- 11
2020-07-31 17:00:00 38.7 17 Sudoeste 26 Sudoeste 0 -- -- 6
2020-07-31 16:00:00 37.9 7 Sur 22 Sur 0 -- -- 12
2020-07-31 15:00:00 36.9 13 Sur 23 Sur 0 -- -- 18
2020-07-31 14:00:00 35.6 11 Sudeste 20 Sur 0 -- -- 22
2020-07-31 13:00:00 34.3 10 Sudeste 19 Sudeste 0 -- -- 25
2020-07-31 12:00:00 33.4 6 Sudeste 18 Sudeste 0 -- -- 26
2020-07-31 11:00:00 30.8 11 Este 18 Este 0 -- -- 30
2020-07-31 10:00:00 27.8 12 Este 17 Este 0 -- -- 35
2020-07-31 09:00:00 25.9 7 Este 10 Este 0 -- -- 40
2020-07-31 08:00:00 23.4 6 Nordeste 10 Nordeste 0 -- -- 43
2020-07-31 07:00:00 22.6 2 Este 6 Nordeste 0 -- -- 40
2020-07-31 06:00:00 23.9 5 Nordeste 8 Norte 0 -- -- 37
2020-07-31 05:00:00 25.2 5 Norte 22 Noroeste 0 -- -- 41
2020-07-31 04:00:00 26 19 Noroeste 23 Noroeste 0 -- -- 39
2020-07-31 03:00:00 25.8 14 Noroeste 17 Noroeste 0 -- -- 35
2020-07-31 02:00:00 26.4 12 Oeste 16 Noroeste 0 -- -- 31
2020-07-31 01:00:00 28.5 13 Noroeste 20 Noroeste 0 -- -- 25
2020-07-31 00:00:00 29 9 Noroeste 16 Noroeste 0 -- -- 24
2020-07-30 23:00:00 29.7 13 Noroeste 17 Noroeste 0 -- -- 23
2020-07-30 22:00:00 31.6 14 Noroeste 25 Oeste 0 -- -- 24
2020-07-30 21:00:00 34.5 19 Oeste 33 Oeste 0 -- -- 20
2020-07-30 20:00:00 36.2 22 Sudoeste 33 Sudoeste 0 -- -- 20
2020-07-30 19:00:00 37.2 21 Oeste 41 Sudoeste 0 -- -- 19
2020-07-30 18:00:00 37.5 24 Sudoeste 37 Sur 0 -- -- 19
2020-07-30 17:00:00 37.8 21 Sudoeste 34 Sudoeste 0 -- -- 20
2020-07-30 16:00:00 37.4 12 Sur 27 Sudoeste 0 -- -- 21
2020-07-30 15:00:00 36.6 11 Sudoeste 30 Sur 0 -- -- 23
2020-07-30 14:00:00 35.3 13 Sur 25 Sur 0 -- -- 24
2020-07-30 13:00:00 34.5 11 Sur 22 Sur 0 -- -- 25
2020-07-30 12:00:00 33.3 7 Sur 17 Sur 0 -- -- 25
2020-07-30 11:00:00 31.8 5 Sur 15 Sudeste 0 -- -- 27
2020-07-30 10:00:00 30.4 8 Sudeste 15 Sudeste 0 -- -- 29
2020-07-30 09:00:00 27.8 2 Nordeste 5 Norte 0 -- -- 34
2020-07-30 08:00:00 24.1 2 Nordeste 7 Norte 0 -- -- 40
2020-07-30 07:00:00 24.9 4 Este 14 Nordeste 0 -- -- 39
2020-07-30 06:00:00 25.5 10 Este 16 Nordeste 0 -- -- 37
2020-07-30 05:00:00 25 5 Sudeste 22 Sudeste 0 -- -- 41
2020-07-30 04:00:00 29.2 16 Norte 21 Noroeste 0 -- -- 25
2020-07-30 03:00:00 26.4 8 Noroeste 12 Noroeste 0 -- -- 34
2020-07-30 02:00:00 27.6 6 Sudoeste 14 Sudoeste 0 -- -- 37
2020-07-30 01:00:00 28.9 11 Sudoeste 17 Sudoeste 0 -- -- 38
2020-07-30 00:00:00 30.4 7 Sudeste 14 Sudeste 0 -- -- 24
2020-07-29 23:00:00 31.8 7 Norte 10 Norte 0 -- -- 19
2020-07-29 22:00:00 32.2 4 Norte 6 Oeste 0 -- -- 19
2020-07-29 21:00:00 38.5 5 Oeste 6 Oeste 0 -- -- 16
2020-07-29 20:00:00 39.3 2 Oeste 13 Sur 0 -- -- 13
2020-07-29 19:00:00 39.4 6 Sur 26 Sudeste 0 -- -- 13
2020-07-29 18:00:00 39.8 8 Sudeste 27 Sudeste 0 -- -- 11
2020-07-29 17:00:00 39.5 12 Sudeste 28 Sudeste 0 -- -- 12
2020-07-29 16:00:00 39.2 15 Sur 29 Sur 0 -- -- 14
2020-07-29 15:00:00 38 9 Sudeste 22 Sudeste 0 -- -- 20
2020-07-29 14:00:00 36.9 10 Sur 21 Sur 0 -- -- 24
2020-07-29 13:00:00 36.2 12 Sur 20 Sudeste 0 -- -- 23
2020-07-29 12:00:00 34.1 8 Sur 15 Sur 0 -- -- 28
2020-07-29 11:00:00 31.6 5 Sudeste 13 Sudeste 0 -- -- 31
2020-07-29 10:00:00 27.5 9 Este 13 Este 0 -- -- 40
2020-07-29 09:00:00 25.2 3 Sudeste 11 Nordeste 0 -- -- 45
2020-07-29 08:00:00 21 8 Nordeste 10 Nordeste 0 -- -- 58
2020-07-29 07:00:00 20.6 6 Sudeste 13 Este 0 -- -- 64
2020-07-29 06:00:00 23.6 10 Este 17 Noroeste 0 -- -- 43
2020-07-29 05:00:00 26.2 15 Noroeste 23 Noroeste 0 -- -- 40
2020-07-29 04:00:00 26.1 9 Norte 24 Noroeste 0 -- -- 37
2020-07-29 03:00:00 26.8 14 Oeste 25 Noroeste 0 -- -- 35
2020-07-29 02:00:00 29.1 19 Noroeste 27 Noroeste 0 -- -- 28
2020-07-29 01:00:00 30.7 15 Noroeste 20 Noroeste 0 -- -- 24
2020-07-29 00:00:00 31 15 Noroeste 19 Noroeste 0 -- -- 24
2020-07-28 23:00:00 30.2 9 Noroeste 10 Noroeste 0 -- -- 26
2020-07-28 22:00:00 31.6 6 Sudoeste 13 Sudoeste 0 -- -- 25
2020-07-28 21:00:00 33.9 11 Sudoeste 22 Sur 0 -- -- 22
2020-07-28 20:00:00 35.4 16 Sudoeste 26 Sudoeste 0 -- -- 21
2020-07-28 19:00:00 36.5 13 Sudoeste 22 Sudoeste 0 -- -- 22
2020-07-28 18:00:00 36.6 12 Sudoeste 25 Sudoeste 0 -- -- 22
2020-07-28 17:00:00 36 14 Sudoeste 23 Sudoeste 0 -- -- 23
2020-07-28 16:00:00 34.8 13 Sudoeste 30 Sudoeste 0 -- -- 26
2020-07-28 15:00:00 32.9 12 Sur 20 Sur 0 -- -- 32
2020-07-28 14:00:00 30.9 8 Sur 16 Sudoeste 0 -- -- 37
2020-07-28 13:00:00 29 10 Sur 17 Sur 0 -- -- 42
2020-07-28 12:00:00 27.3 10 Sur 15 Sur 0 -- -- 47
2020-07-28 11:00:00 25.5 6 Sur 17 Sur 0 -- -- 53
2020-07-28 10:00:00 24.6 6 Sur 13 Sur 0 -- -- 55
2020-07-28 09:00:00 22.4 4 Sudoeste 10 Oeste 0 -- -- 63
2020-07-28 08:00:00 20.9 4 Noroeste 6 Noroeste 0 -- -- 70
2020-07-28 07:00:00 21 5 Este 11 Sudeste 0 -- -- 69
2020-07-28 06:00:00 21.8 9 Sudeste 14 Sudeste 0 -- -- 67
2020-07-28 05:00:00 22.8 10 Sur 15 Sur 0 -- -- 63
2020-07-28 04:00:00 24.1 4 Sudeste 9 Oeste 0 -- -- 57
2020-07-28 03:00:00 25.5 8 Oeste 14 Sudoeste 0 -- -- 49
2020-07-28 02:00:00 26.9 6 Noroeste 17 Noroeste 0 -- -- 43
2020-07-28 01:00:00 28.1 10 Oeste 17 Noroeste 0 -- -- 39
2020-07-28 00:00:00 29.2 12 Oeste 18 Sudoeste 0 -- -- 37
2020-07-27 23:00:00 30.6 13 Sudoeste 23 Sudoeste 0 -- -- 35
2020-07-27 22:00:00 32.3 16 Sudoeste 29 Sudoeste 0 -- -- 31
2020-07-27 21:00:00 35.8 9 Sudoeste 24 Sudoeste 0 -- -- 19
2020-07-27 20:00:00 37.1 15 Sur 26 Sudoeste 0 -- -- 18
2020-07-27 19:00:00 38.4 20 Sudoeste 33 Oeste 0 -- -- 15
2020-07-27 18:00:00 39.2 17 Sur 33 Sur 0 -- -- 15
2020-07-27 17:00:00 39 14 Sudoeste 39 Sudeste 0 -- -- 17
2020-07-27 16:00:00 38.3 13 Sudeste 33 Sur 0 -- -- 18
2020-07-27 15:00:00 37.4 8 Sudoeste 26 Sudeste 0 -- -- 18
2020-07-27 14:00:00 36.1 8 Sudeste 17 Sur 0 -- -- 20
2020-07-27 13:00:00 34 8 Oeste 17 Oeste 0 -- -- 23
2020-07-27 12:00:00 33.1 8 Sudoeste 15 Oeste 0 -- -- 25
2020-07-27 09:00:00 -- -- -- -- -- -- -- -- --
2020-07-27 08:00:00 -- -- -- -- -- -- -- -- --
2020-07-27 07:00:00 -- -- -- -- -- -- -- -- --
2020-07-27 06:00:00 -- -- -- -- -- -- -- -- --
2020-07-27 05:00:00 28 13 Este 18 Sudeste 0 -- -- 25
2020-07-27 04:00:00 29.5 9 Este 17 Noroeste 0 -- -- 21
2020-07-27 03:00:00 28.6 17 Noroeste 21 Noroeste 0 -- -- 25
2020-07-27 02:00:00 29.2 10 Nordeste 15 Este 0 -- -- 21
2020-07-27 01:00:00 31.2 5 Nordeste 10 Nordeste 0 -- -- 20
2020-07-27 00:00:00 33.3 11 Nordeste 18 Nordeste 0 -- -- 17
2020-07-26 23:00:00 31.5 9 Norte 10 Norte 0 -- -- 20
2020-07-26 22:00:00 32.9 6 Norte 8 Norte 0 -- -- 19
2020-07-26 21:00:00 38.5 3 Noroeste 6 Norte 0 -- -- 14
2020-07-26 20:00:00 39.7 4 Sur 19 Noroeste 0 -- -- 13
2020-07-26 19:00:00 40.2 6 Noroeste 19 Sudoeste 0 -- -- 12
2020-07-26 18:00:00 40.5 13 Sudoeste 23 Oeste 0 -- -- 11
2020-07-26 17:00:00 40.5 13 Sudoeste 23 Sudoeste 0 -- -- 12
2020-07-26 16:00:00 39.8 11 Sur 23 Sur 0 -- -- 13
2020-07-26 15:00:00 39 14 Sur 23 Sur 0 -- -- 15
2020-07-26 14:00:00 38.1 9 Sur 18 Sur 0 -- -- 15
2020-07-26 13:00:00 36.6 10 Sur 17 Sur 0 -- -- 17
2020-07-26 12:00:00 34.2 12 Sur 18 Sur 0 -- -- 23
2020-07-26 11:00:00 32.2 8 Sudeste 14 Sudeste 0 -- -- 24
2020-07-26 10:00:00 29.1 10 Este 17 Este 0 -- -- 29
2020-07-26 09:00:00 25.4 10 Este 22 Este 0 -- -- 36
2020-07-26 08:00:00 22.8 16 Nordeste 23 Este 0 -- -- 42
2020-07-26 07:00:00 22 6 Este 11 Nordeste 0 -- -- 38
2020-07-26 06:00:00 23.1 5 Nordeste 13 Norte 0 -- -- 32
2020-07-26 05:00:00 24.1 11 Norte 15 Noroeste 0 -- -- 33
2020-07-26 04:00:00 25.7 10 Norte 28 Noroeste 0 -- -- 26
2020-07-26 03:00:00 26.6 22 Noroeste 30 Noroeste 0 -- -- 27
2020-07-26 02:00:00 26.7 23 Noroeste 30 Noroeste 0 -- -- 28
2020-07-26 01:00:00 28.6 18 Noroeste 29 Noroeste 0 -- -- 22
2020-07-26 00:00:00 29.7 7 Oeste 9 Noroeste 0 -- -- 16
2020-07-25 23:00:00 31.3 3 Sur 10 Norte 0 -- -- 16
2020-07-25 22:00:00 32 9 Norte 11 Noroeste 0 -- -- 14
2020-07-25 21:00:00 35.8 9 Noroeste 23 Noroeste 0 -- -- 12
2020-07-25 20:00:00 37.5 15 Noroeste 30 Sudoeste 0 -- -- 10
2020-07-25 19:00:00 38.5 12 Sudoeste 29 Sudoeste 0 -- -- 12
2020-07-25 18:00:00 38.6 18 Oeste 34 Sudoeste 0 -- -- 11
2020-07-25 17:00:00 38.3 17 Sudoeste 36 Oeste 0 -- -- 13
2020-07-25 16:00:00 38 20 Sur 34 Sur 0 -- -- 18
2020-07-25 15:00:00 37.3 16 Sudoeste 28 Oeste 0 -- -- 19
2020-07-25 14:00:00 35.9 16 Sudoeste 21 Oeste 0 -- -- 18
2020-07-25 13:00:00 34.4 8 Sur 15 Sur 0 -- -- 22
2020-07-25 12:00:00 32 12 Sur 19 Sudeste 0 -- -- 28
2020-07-25 11:00:00 30.2 12 Sudeste 19 Sudeste 0 -- -- 30
2020-07-25 10:00:00 27.6 11 Este 19 Este 0 -- -- 34
2020-07-25 09:00:00 24.2 12 Este 24 Este 0 -- -- 39
2020-07-25 08:00:00 21.3 17 Este 27 Nordeste 0 -- -- 48
2020-07-25 07:00:00 20.1 6 Nordeste 13 Nordeste 0 -- -- 46
2020-07-25 06:00:00 21.4 12 Nordeste 17 Nordeste 0 -- -- 46
2020-07-25 05:00:00 22.7 10 Nordeste 17 Noroeste 0 -- -- 39
2020-07-25 04:00:00 24 14 Noroeste 22 Noroeste 0 -- -- 39
2020-07-25 03:00:00 25.2 17 Noroeste 28 Noroeste 0 -- -- 37
2020-07-25 02:00:00 26.2 23 Noroeste 31 Noroeste 0 -- -- 34
2020-07-25 01:00:00 28.2 19 Noroeste 30 Noroeste 0 -- -- 29
2020-07-25 00:00:00 29.7 21 Noroeste 29 Noroeste 0 -- -- 22
2020-07-24 23:00:00 30.5 14 Norte 17 Noroeste 0 -- -- 15
2020-07-24 22:00:00 31.4 12 Norte 17 Noroeste 0 -- -- 16
2020-07-24 21:00:00 35 13 Noroeste 27 Oeste 0 -- -- 14
2020-07-24 20:00:00 36.6 15 Noroeste 24 Oeste 0 -- -- 14
2020-07-24 19:00:00 37.7 21 Sudoeste 30 Sudoeste 0 -- -- 15
2020-07-24 18:00:00 37.7 19 Sur 37 Sudoeste 0 -- -- 15
2020-07-24 17:00:00 37.5 21 Sudoeste 38 Sudoeste 0 -- -- 19
2020-07-24 16:00:00 37.4 21 Sur 31 Sur 0 -- -- 21
2020-07-24 15:00:00 36.6 18 Sur 28 Sur 0 -- -- 22
2020-07-24 14:00:00 35.2 13 Sur 22 Sur 0 -- -- 24
2020-07-24 13:00:00 33.2 11 Sudoeste 20 Sudoeste 0 -- -- 30
2020-07-24 12:00:00 31.5 10 Sudoeste 15 Sudoeste 0 -- -- 32
2020-07-24 11:00:00 29.4 4 Sudeste 11 Sur 0 -- -- 39
2020-07-24 10:00:00 27.5 5 Sur 10 Sudoeste 0 -- -- 45
2020-07-24 09:00:00 25.2 4 Nordeste 9 Nordeste 0 -- -- 48
2020-07-24 08:00:00 23.2 6 Nordeste 9 Nordeste 0 -- -- 51
2020-07-24 07:00:00 24.3 3 Norte 21 Noroeste 0 -- -- 44
2020-07-24 06:00:00 24.3 16 Noroeste 24 Noroeste 0 -- -- 45
2020-07-24 05:00:00 25.2 18 Noroeste 28 Noroeste 0 -- -- 43
2020-07-24 04:00:00 26.7 19 Noroeste 30 Noroeste 0 -- -- 39
2020-07-24 03:00:00 27.4 22 Noroeste 32 Noroeste 0 -- -- 39
2020-07-24 02:00:00 28.7 25 Noroeste 41 Noroeste 0 -- -- 37
2020-07-24 01:00:00 28.9 23 Noroeste 36 Noroeste 0 -- -- 36
2020-07-24 00:00:00 29.8 16 Noroeste 24 Noroeste 0 -- -- 32
2020-07-23 23:00:00 30.1 11 Noroeste 20 Sudoeste 0 -- -- 30
2020-07-23 22:00:00 31.9 13 Oeste 23 Sudoeste 0 -- -- 27
2020-07-23 21:00:00 33.9 18 Sudoeste 32 Sudoeste 0 -- -- 28
2020-07-23 20:00:00 35.3 26 Sudoeste 35 Sudoeste 0 -- -- 26
2020-07-23 19:00:00 36.4 23 Sudoeste 35 Sur 0 -- -- 24
2020-07-23 18:00:00 37.2 24 Sudoeste 35 Sur 0 -- -- 24
2020-07-23 17:00:00 37.2 21 Sudoeste 35 Sur 0 -- -- 25
2020-07-23 16:00:00 37 20 Sur 32 Sur 0 -- -- 26
2020-07-23 15:00:00 36.2 19 Sur 32 Sudoeste 0 -- -- 29
2020-07-23 14:00:00 35.1 17 Sudoeste 27 Sudoeste 0 -- -- 31
2020-07-23 13:00:00 34.1 11 Sur 20 Sudoeste 0 -- -- 32
2020-07-23 12:00:00 32.1 8 Sudoeste 14 Sur 0 -- -- 34
2020-07-23 11:00:00 30.1 4 Sur 8 Sur 0 -- -- 39
2020-07-23 10:00:00 27.6 3 Sudoeste 8 Sur 0 -- -- 44
2020-07-23 09:00:00 25 4 Norte 11 Nordeste 0 -- -- 50
2020-07-23 08:00:00 22.1 9 Nordeste 12 Nordeste 0 -- -- 58
2020-07-23 07:00:00 22.4 3 Sudeste 8 Noroeste 0 -- -- 54
2020-07-23 06:00:00 23.4 5 Oeste 20 Noroeste 0 -- -- 52
2020-07-23 05:00:00 23.6 12 Noroeste 15 Noroeste 0 -- -- 50
2020-07-23 04:00:00 24.5 5 Noroeste 13 Noroeste 0 -- -- 46
2020-07-23 03:00:00 24.6 9 Noroeste 13 Noroeste 0 -- -- 46
2020-07-23 02:00:00 24.7 5 Noroeste 6 Norte 0 -- -- 44
2020-07-23 01:00:00 26 5 Noroeste 9 Noroeste 0 -- -- 47
2020-07-23 00:00:00 26.4 9 Noroeste 10 Noroeste 0 -- -- 49
2020-07-22 23:00:00 27.2 6 Noroeste 10 Oeste 0 -- -- 47
2020-07-22 22:00:00 28.6 7 Sudoeste 14 Sur 0 -- -- 43
2020-07-22 21:00:00 31.5 13 Sudoeste 19 Sudoeste 0 -- -- 36
2020-07-22 20:00:00 33.3 7 Oeste 23 Oeste 0 -- -- 25
2020-07-22 19:00:00 33.8 8 Oeste 27 Oeste 0 -- -- 25
2020-07-22 18:00:00 33.2 10 Sudoeste 31 Sudoeste 0 -- -- 28
2020-07-22 17:00:00 32.3 10 Oeste 28 Sudoeste 0 -- -- 30
2020-07-22 16:00:00 31.8 15 Oeste 28 Sudoeste 0 -- -- 31
2020-07-22 15:00:00 32.3 12 Sudoeste 27 Sudoeste 0 -- -- 34
2020-07-22 14:00:00 30.5 12 Oeste 32 Oeste 0 -- -- 38
2020-07-22 13:00:00 29 12 Sudoeste 21 Oeste 0 -- -- 47
2020-07-22 12:00:00 27.3 12 Sudoeste 20 Sudoeste 0 -- -- 53
2020-07-22 11:00:00 25 11 Sudoeste 17 Sudoeste 0 -- -- 59
2020-07-22 10:00:00 24.4 4 Sur 8 Sudeste 0.2 -- -- 56
2020-07-22 09:00:00 22.1 4 Nordeste 6 Norte 0 -- -- 66
2020-07-22 08:00:00 18.3 4 Norte 9 Norte 0 -- -- 78
2020-07-22 07:00:00 18.2 5 Noroeste 14 Oeste 0 -- -- 78
2020-07-22 06:00:00 18.7 6 Oeste 16 Noroeste 0 -- -- 76
2020-07-22 05:00:00 19.8 13 Noroeste 29 Norte 0 -- -- 70
2020-07-22 04:00:00 21.1 23 Noroeste 35 Noroeste 0.6 -- -- 63
2020-07-22 03:00:00 21.1 21 Noroeste 30 Noroeste 0 -- -- 67
2020-07-22 02:00:00 22.5 19 Noroeste 33 Norte 0 -- -- 57
2020-07-22 01:00:00 24.9 24 Norte 38 Noroeste 0 -- -- 44
2020-07-22 00:00:00 23.6 27 Norte 42 Noroeste 0.6 -- -- 50
2020-07-21 23:00:00 23.6 28 Noroeste 43 Noroeste 0 -- -- 53
2020-07-21 22:00:00 25 15 Oeste 23 Oeste 0 -- -- 45
2020-07-21 21:00:00 26.4 11 Norte 25 Norte 0 -- -- 38
2020-07-21 20:00:00 26.2 19 Norte 31 Noroeste 0.2 -- -- 39
2020-07-21 19:00:00 25.4 14 Noroeste 28 Noroeste 0 -- -- 48
2020-07-21 18:00:00 22.7 18 Noroeste 26 Noroeste 0 -- -- 64
2020-07-21 17:00:00 24.5 14 Noroeste 23 Norte 0.8 -- -- 57
2020-07-21 16:00:00 25.5 16 Norte 28 Nordeste 0.2 -- -- 48
2020-07-21 15:00:00 27.6 9 Noroeste 21 Sudoeste 0.2 -- -- 38
2020-07-21 14:00:00 30.6 10 Nordeste 22 Oeste 0 -- -- 28
2020-07-21 13:00:00 31.2 8 Sudeste 22 Sur 0 -- -- 24
2020-07-21 12:00:00 33.8 12 Este 20 Este 0 -- -- 21
2020-07-21 11:00:00 33.5 6 Sudoeste 14 Sur 0 -- -- 23
2020-07-21 10:00:00 31.6 6 Sudoeste 17 Sudoeste 0 -- -- 25
2020-07-21 09:00:00 30.9 3 Sudoeste 9 Este 0 -- -- 25
2020-07-21 08:00:00 27.2 10 Este 14 Este 0 -- -- 29
2020-07-21 07:00:00 27.4 5 Este 14 Sudeste 0 -- -- 26
2020-07-21 06:00:00 28.2 9 Este 15 Este 0 -- -- 25
2020-07-21 05:00:00 28.9 10 Este 20 Este 0 -- -- 23
2020-07-21 04:00:00 29.6 17 Este 28 Este 0 -- -- 20
2020-07-21 03:00:00 29.3 13 Este 25 Sur 0 -- -- 21
2020-07-21 02:00:00 31.7 13 Nordeste 21 Nordeste 0 -- -- 16
2020-07-21 01:00:00 33.5 15 Nordeste 26 Nordeste 0 -- -- 15
2020-07-21 00:00:00 33.4 18 Norte 38 Norte 0 -- -- 15
2020-07-20 23:00:00 33.7 23 Norte 34 Norte 0 -- -- 15
2020-07-20 22:00:00 31.4 13 Norte -- -- 0 -- -- 17
2020-07-20 21:00:00 36.3 7 Nordeste 14 Este 0 -- -- 14
2020-07-20 20:00:00 38.1 4 Nordeste 14 Oeste 0 -- -- 12
2020-07-20 19:00:00 38.7 6 Oeste 19 Oeste 0 -- -- 11
2020-07-20 18:00:00 38.6 5 Este 21 Sur 0 -- -- 11
2020-07-20 17:00:00 38.4 7 Sudeste 23 Sudoeste 0 -- -- 10
2020-07-20 16:00:00 38.2 9 Sur 25 Sur 0 -- -- 11
2020-07-20 15:00:00 37.7 8 Sudoeste 26 Sur 0 -- -- 11
2020-07-20 14:00:00 36.5 10 Sudoeste 27 Oeste 0 -- -- 12
2020-07-20 13:00:00 34.9 6 Este 15 Sur 0 -- -- 14
2020-07-20 12:00:00 33.6 6 Sur 15 Sur 0 -- -- 15
2020-07-20 11:00:00 31.5 8 Sudeste 15 Sudeste 0 -- -- 18
2020-07-20 10:00:00 29 9 Este 13 Este 0 -- -- 20
2020-07-20 09:00:00 26.6 5 Este 10 Nordeste 0 -- -- 22
2020-07-20 08:00:00 23.9 8 Este 14 Este 0 -- -- 25
2020-07-20 07:00:00 23.5 6 Este 17 Este 0 -- -- 26
2020-07-20 06:00:00 23.2 8 Nordeste 12 Nordeste 0 -- -- 24
2020-07-20 05:00:00 23.9 10 Nordeste 14 Nordeste 0 -- -- 23
2020-07-20 04:00:00 23.9 10 Noroeste 15 Noroeste 0 -- -- 24
2020-07-20 03:00:00 26.3 14 Noroeste 20 Noroeste 0 -- -- 21
2020-07-20 02:00:00 26.2 10 Noroeste 22 Norte 0 -- -- 20
2020-07-20 01:00:00 28 17 Noroeste 24 Noroeste 0 -- -- 17
2020-07-20 00:00:00 28.6 17 Noroeste 22 Noroeste 0 -- -- 19
2020-07-19 23:00:00 29.7 14 Noroeste 22 Noroeste 0 -- -- 16
2020-07-19 22:00:00 30.9 15 Oeste 23 Oeste 0 -- -- 14
2020-07-19 21:00:00 33.9 15 Oeste 35 Oeste 0 -- -- 11
2020-07-19 20:00:00 35.7 27 Oeste 38 Oeste 0 -- -- 10
2020-07-19 19:00:00 36.6 28 Oeste 43 Oeste 0 -- -- 10
2020-07-19 18:00:00 37.1 23 Oeste 62 Sudoeste 0 -- -- 8
2020-07-19 17:00:00 37.1 26 Sudoeste 41 Sur 0 -- -- 8
2020-07-19 16:00:00 37.1 21 Sudoeste 46 Sudoeste 0 -- -- 8
2020-07-19 15:00:00 36.3 16 Sur 28 Sur 0 -- -- 12
2020-07-19 14:00:00 34.6 20 Sudoeste 30 Sudoeste 0 -- -- 10
2020-07-19 13:00:00 33.4 17 Sur 28 Sur 0 -- -- 21
2020-07-19 12:00:00 30.9 12 Sudoeste 21 Sudoeste 0 -- -- 27
2020-07-19 11:00:00 28.9 9 Sur 14 Sudeste 0 -- -- 30
2020-07-19 10:00:00 26.6 6 Sur 15 Este 0 -- -- 39
2020-07-19 09:00:00 23.4 9 Este 12 Este 0 -- -- 48
2020-07-19 08:00:00 21.6 8 Sudeste 12 Sudeste 0 -- -- 53
2020-07-19 07:00:00 21 5 Este 7 Este 0 -- -- 52
2020-07-19 06:00:00 22.2 5 Sudoeste 8 Sur 0 -- -- 50
2020-07-19 05:00:00 24.2 3 Sudoeste 11 Noroeste 0 -- -- 44
2020-07-19 04:00:00 26.5 8 Noroeste 24 Noroeste 0 -- -- 35
2020-07-19 03:00:00 27.7 21 Noroeste 33 Noroeste 0 -- -- 33
2020-07-19 02:00:00 29.4 28 Noroeste 34 Noroeste 0 -- -- 31
2020-07-19 01:00:00 29.8 13 Noroeste 24 Oeste 0 -- -- 29
2020-07-19 00:00:00 31.2 15 Noroeste 29 Noroeste 0 -- -- 25
2020-07-18 23:00:00 30.9 10 Oeste 18 Noroeste 0 -- -- 21
2020-07-18 22:00:00 32.9 5 Este 13 Sudoeste 0 -- -- 19
2020-07-18 21:00:00 35.9 10 Sudoeste 27 Sudoeste 0 -- -- 19
2020-07-18 20:00:00 37.6 19 Sur 30 Oeste 0 -- -- 16
2020-07-18 19:00:00 38.8 12 Noroeste 33 Noroeste 0 -- -- 12
2020-07-18 18:00:00 39.1 18 Noroeste 32 Oeste 0 -- -- 13
2020-07-18 17:00:00 39.5 15 Oeste 44 Oeste 0 -- -- 13
2020-07-18 16:00:00 38.9 17 Noroeste 35 Noroeste 0 -- -- 13
2020-07-18 15:00:00 39 18 Sudoeste 33 Sudoeste 0 -- -- 12
2020-07-18 14:00:00 38.4 13 Sudoeste 23 Sudoeste 0 -- -- 11
2020-07-18 13:00:00 36.9 8 Sudeste 15 Sur 0 -- -- 11
2020-07-18 12:00:00 35.3 6 Sudoeste 15 Sudeste 0 -- -- 11
2020-07-18 11:00:00 33.6 5 Sur 10 Sur 0 -- -- 11
2020-07-18 10:00:00 31.3 5 Sur 8 Sudeste 0 -- -- 13
2020-07-18 09:00:00 30.5 2 Sudeste 11 Nordeste 0 -- -- 13
2020-07-18 08:00:00 28.7 10 Nordeste 21 Nordeste 0 -- -- 12
2020-07-18 07:00:00 27.4 16 Nordeste 24 Nordeste 0 -- -- 13
2020-07-18 06:00:00 26.2 13 Nordeste 17 Nordeste 0 -- -- 17
2020-07-18 05:00:00 25.2 7 Este 14 Nordeste 0 -- -- 20
2020-07-18 04:00:00 29.2 16 Nordeste 23 Este 0 -- -- 14
2020-07-18 03:00:00 29.9 15 Nordeste 23 Este 0 -- -- 14
2020-07-18 02:00:00 28.9 3 Sudoeste 16 Este 0 -- -- 16
2020-07-18 01:00:00 30.6 12 Nordeste 27 Norte 0 -- -- 15
2020-07-18 00:00:00 31.9 18 Norte 26 Norte 0 -- -- 13
2020-07-17 23:00:00 32.2 20 Norte 28 Norte 0 -- -- 15
2020-07-17 22:00:00 32.5 13 Norte 22 Noroeste 0 -- -- 17
2020-07-17 21:00:00 35.9 18 Noroeste 30 Noroeste 0 -- -- 14
2020-07-17 20:00:00 37.4 20 Noroeste 33 Noroeste 0 -- -- 14
2020-07-17 19:00:00 38.2 19 Oeste 34 Noroeste 0 -- -- 14
2020-07-17 18:00:00 38.4 20 Noroeste 33 Noroeste 0 -- -- 14
2020-07-17 17:00:00 38.7 22 Norte 41 Noroeste 0 -- -- 14
2020-07-17 16:00:00 38.7 18 Oeste 33 Noroeste 0 -- -- 15
2020-07-17 15:00:00 38 17 Sur 29 Sur 0 -- -- 18
2020-07-17 14:00:00 37.3 12 Sudoeste 23 Sur 0 -- -- 18
2020-07-17 13:00:00 35.6 12 Sudeste 24 Nordeste 0 -- -- 19
2020-07-17 12:00:00 33.5 16 Este 23 Este 0 -- -- 21
2020-07-17 11:00:00 31.9 13 Este 21 Sudeste 0 -- -- 23
2020-07-17 10:00:00 30.4 16 Sudeste 28 Este 0 -- -- 25
2020-07-17 09:00:00 28.7 20 Este 27 Este 0 -- -- 27
2020-07-17 08:00:00 27.5 10 Nordeste 16 Nordeste 0 -- -- 28
2020-07-17 07:00:00 24.9 3 Este 11 Oeste 0 -- -- 32
2020-07-17 06:00:00 25.4 6 Norte 14 Norte 0 -- -- 30
2020-07-17 05:00:00 25.4 10 Norte 13 Oeste 0 -- -- 30
2020-07-17 04:00:00 27 9 Noroeste 16 Nordeste 0 -- -- 28
2020-07-17 03:00:00 27.5 9 Nordeste 17 Sudeste 0 -- -- 26
2020-07-17 02:00:00 30.3 2 Noroeste 14 Nordeste 0 -- -- 22
2020-07-17 01:00:00 30.8 11 Nordeste 19 Nordeste 0 -- -- 21
2020-07-17 00:00:00 32.2 15 Nordeste 23 Norte 0 -- -- 20
2020-07-16 23:00:00 32.6 15 Norte 23 Norte 0 -- -- 19
2020-07-16 22:00:00 33.6 4 Nordeste 14 Sur 0 -- -- 21
2020-07-16 21:00:00 36.3 3 Sudeste 19 Sudoeste 0 -- -- 19
2020-07-16 20:00:00 37.9 6 Oeste 21 Sudoeste 0 -- -- 18
2020-07-16 19:00:00 38.2 17 Sudoeste 26 Sudeste 0 -- -- 17
2020-07-16 18:00:00 38 12 Sudeste 27 Sur 0 -- -- 17
2020-07-16 17:00:00 38.6 18 Sudoeste 27 Sudoeste 0 -- -- 16
2020-07-16 16:00:00 37.9 12 Oeste 28 Sudeste 0 -- -- 17
2020-07-16 15:00:00 37.6 14 Sur 30 Sudeste 0 -- -- 18
2020-07-16 14:00:00 36.6 14 Sudeste 31 Sudeste 0 -- -- 18
2020-07-16 13:00:00 35.6 11 Sudeste 29 Este 0 -- -- 20
2020-07-16 12:00:00 34 16 Este 30 Sudeste 0 -- -- 22
2020-07-16 11:00:00 33 18 Este 33 Este 0 -- -- 25
2020-07-16 10:00:00 31.3 22 Este 30 Este 0 -- -- 25
2020-07-16 09:00:00 28.7 17 Este 23 Este 0 -- -- 26
2020-07-16 08:00:00 27.6 17 Nordeste 29 Nordeste 0 -- -- 29
2020-07-16 07:00:00 28.1 20 Nordeste 27 Nordeste 0 -- -- 26
2020-07-16 06:00:00 27.6 18 Este 26 Este 0 -- -- 28
2020-07-16 05:00:00 28.2 19 Nordeste 27 Nordeste 0 -- -- 25
2020-07-16 04:00:00 29.1 18 Nordeste 25 Nordeste 0 -- -- 20
2020-07-16 03:00:00 29.4 18 Nordeste 26 Nordeste 0 -- -- 23
2020-07-16 02:00:00 29.6 14 Nordeste 19 Nordeste 0 -- -- 25
2020-07-16 01:00:00 29.7 12 Nordeste 18 Este 0 -- -- 26
2020-07-16 00:00:00 31.1 14 Nordeste 23 Nordeste 0 -- -- 24
2020-07-15 23:00:00 31.6 17 Nordeste 24 Nordeste 0 -- -- 23
2020-07-15 22:00:00 31.3 12 Norte 17 Norte 0 -- -- 26
2020-07-15 21:00:00 34 9 Nordeste 14 Nordeste 0 -- -- 24
2020-07-15 20:00:00 35.5 3 Noroeste 14 Oeste 0 -- -- 22
2020-07-15 19:00:00 35.1 5 Sur 13 Sur 0 -- -- 23
2020-07-15 18:00:00 34.4 5 Sur 15 Sur 0 -- -- 24
2020-07-15 17:00:00 36.3 6 Oeste 22 Sudeste 0 -- -- 22
2020-07-15 16:00:00 34.8 8 Nordeste 23 Este 0 -- -- 24
2020-07-15 15:00:00 33.9 9 Nordeste 28 Sudeste 0 -- -- 27
2020-07-15 14:00:00 33 15 Este 27 Sudeste 0 -- -- 29
2020-07-15 13:00:00 31.5 17 Este 31 Sudeste 0 -- -- 32
2020-07-15 12:00:00 30.1 18 Este 29 Este 0 -- -- 35
2020-07-15 11:00:00 28.5 19 Este 29 Este 0 -- -- 38
2020-07-15 10:00:00 27 22 Este 31 Este 0 -- -- 41
2020-07-15 09:00:00 25.1 20 Este 32 Este 0 -- -- 46
2020-07-15 08:00:00 23.1 18 Este 27 Este 0 -- -- 51
2020-07-15 07:00:00 23.7 18 Este 36 Nordeste 0 -- -- 49
2020-07-15 06:00:00 24.1 23 Este 39 Este 0 -- -- 48
2020-07-15 05:00:00 24.5 27 Este 37 Nordeste 0 -- -- 47
2020-07-15 04:00:00 25.2 27 Nordeste 37 Este 0 -- -- 44
2020-07-15 03:00:00 25.8 25 Nordeste 35 Nordeste 0 -- -- 43
2020-07-15 02:00:00 26.9 24 Este 33 Este 0 -- -- 37
2020-07-15 01:00:00 29.4 13 Nordeste 26 Nordeste 0 -- -- 18
2020-07-15 00:00:00 30.3 16 Norte 26 Noroeste 0 -- -- 17
2020-07-14 23:00:00 29.9 15 Norte 22 Norte 0 -- -- 18
2020-07-14 22:00:00 30.7 14 Norte 24 Noroeste 0 -- -- 18
2020-07-14 21:00:00 33.9 18 Noroeste 36 Noroeste 0 -- -- 17
2020-07-14 20:00:00 35.2 17 Noroeste 31 Noroeste 0 -- -- 17
2020-07-14 19:00:00 36.1 18 Noroeste 34 Oeste 0 -- -- 16
2020-07-14 18:00:00 36.7 21 Noroeste 31 Oeste 0 -- -- 17
2020-07-14 17:00:00 36.8 14 Sur 29 Sur 0 -- -- 22
2020-07-14 16:00:00 35.4 5 Sur 21 Noroeste 0 -- -- 22
2020-07-14 15:00:00 36.9 10 Sur 22 Sur 0 -- -- 21
2020-07-14 14:00:00 34.5 7 Norte 18 Sur 0 -- -- 23
2020-07-14 13:00:00 34.3 7 Oeste 18 Oeste 0 -- -- 23
2020-07-14 12:00:00 33.2 6 Sur 14 Noroeste 0 -- -- 25
2020-07-14 11:00:00 30.9 5 Sur 18 Sudeste 0 -- -- 29
2020-07-14 10:00:00 29.3 10 Sudeste 17 Sudeste 0 -- -- 31
2020-07-14 09:00:00 27.3 2 Sudoeste 21 Noroeste 0 -- -- 32
2020-07-14 08:00:00 24.4 16 Noroeste 25 Noroeste 0 -- -- 36
2020-07-14 07:00:00 22.9 9 Noroeste 16 Noroeste 0 -- -- 40
2020-07-14 06:00:00 22.9 12 Noroeste 14 Noroeste 0 -- -- 38
2020-07-14 05:00:00 23.9 5 Noroeste 8 Oeste 0 -- -- 35
2020-07-14 04:00:00 25.4 5 Noroeste 11 Noroeste 0 -- -- 32
2020-07-14 03:00:00 26.7 7 Oeste 22 Este 0 -- -- 29
2020-07-14 02:00:00 30.2 14 Norte 23 Norte 0 -- -- 25
2020-07-14 01:00:00 28.8 16 Noroeste 23 Noroeste 0 -- -- 26
2020-07-14 00:00:00 30.3 17 Noroeste 26 Noroeste 0 -- -- 24
2020-07-13 23:00:00 31.1 18 Norte 25 Noroeste 0 -- -- 22
2020-07-13 22:00:00 31.3 13 Noroeste 20 Noroeste 0 -- -- 22
2020-07-13 21:00:00 34.8 9 Norte 23 Noroeste 0 -- -- 19
2020-07-13 20:00:00 36 10 Norte 24 Norte 0 -- -- 17
2020-07-13 19:00:00 36.5 14 Norte 28 Noroeste 0 -- -- 17
2020-07-13 18:00:00 36.8 13 Norte 37 Norte 0 -- -- 17
2020-07-13 17:00:00 36 9 Nordeste 17 Nordeste 0 -- -- 18
2020-07-13 16:00:00 35.3 6 Sur 15 Sudeste 0 -- -- 26
2020-07-13 15:00:00 35.2 6 Este 19 Este 0 -- -- 25
2020-07-13 14:00:00 35.2 11 Sur 21 Sur 0 -- -- 25
2020-07-13 13:00:00 33.9 10 Sur 20 Oeste 0 -- -- 28
2020-07-13 12:00:00 32.1 8 Sudoeste 18 Oeste 0 -- -- 32
2020-07-13 11:00:00 30.1 7 Sudoeste 13 Sudoeste 0 -- -- 35
2020-07-13 10:00:00 28.1 5 Oeste 11 Oeste 0 -- -- 39
2020-07-13 09:00:00 26.5 7 Este 10 Este 0 -- -- 43
2020-07-13 08:00:00 22.6 4 Este 8 Sudoeste 0 -- -- 48
2020-07-13 07:00:00 22.5 2 Norte 8 Este 0 -- -- 47
2020-07-13 06:00:00 23.7 4 Este 12 Nordeste 0 -- -- 43
2020-07-13 05:00:00 23.4 8 Norte 9 Norte 0 -- -- 42
2020-07-13 04:00:00 24 4 Noroeste 13 Noroeste 0 -- -- 40
2020-07-13 03:00:00 25 7 Norte 13 Norte 0 -- -- 38
2020-07-13 02:00:00 26.3 9 Norte 18 Noroeste 0 -- -- 37
2020-07-13 01:00:00 25.4 12 Noroeste 21 Noroeste 0 -- -- 38
2020-07-13 00:00:00 27.3 14 Norte 20 Noroeste 0 -- -- 34